createdAt,value
2023-05-02T00:00:13.433Z,50.852825
2023-05-02T00:01:13.473Z,50.852852
2023-05-02T00:02:13.417Z,50.852806
2023-05-02T00:03:13.676Z,50.852783
2023-05-02T00:04:13.640Z,50.852772
2023-05-02T00:05:13.388Z,50.852840
2023-05-02T00:06:13.420Z,50.852791
2023-05-02T00:07:13.375Z,50.852810
2023-05-02T00:08:13.370Z,50.852757
2023-05-02T00:09:13.364Z,50.852764
2023-05-02T00:10:13.387Z,50.852798
2023-05-02T00:11:13.360Z,50.852802
2023-05-02T00:12:13.348Z,50.852768
2023-05-02T00:13:13.362Z,50.852871
2023-05-02T00:14:13.420Z,50.852882
2023-05-02T00:15:13.321Z,50.852859
2023-05-02T00:16:13.365Z,50.852791
2023-05-02T00:17:13.321Z,50.852882
2023-05-02T00:18:13.394Z,50.852833
2023-05-02T00:19:13.355Z,50.852818
2023-05-02T00:20:13.311Z,50.852757
2023-05-02T00:21:13.297Z,50.852814
2023-05-02T00:22:13.273Z,50.852802
2023-05-02T00:23:13.282Z,50.852795
2023-05-02T00:24:13.279Z,50.852810
2023-05-02T00:25:13.259Z,50.852837
2023-05-02T00:26:13.280Z,50.852737
2023-05-02T00:27:13.250Z,50.852802
2023-05-02T00:28:13.241Z,50.852791
2023-05-02T00:29:13.245Z,50.852852
2023-05-02T00:30:13.229Z,50.852791
2023-05-02T00:31:13.295Z,50.852821
2023-05-02T00:32:13.236Z,50.852848
2023-05-02T00:33:13.396Z,50.852901
2023-05-02T00:34:13.185Z,50.852859
2023-05-02T00:35:13.209Z,50.852837
2023-05-02T00:36:13.183Z,50.852852
2023-05-02T00:37:13.253Z,50.852856
2023-05-02T00:38:13.167Z,50.852829
2023-05-02T00:39:13.215Z,50.852901
2023-05-02T00:40:13.176Z,50.852833
2023-05-02T00:41:13.184Z,50.852901
2023-05-02T00:42:13.163Z,50.852917
2023-05-02T00:43:13.173Z,50.852921
2023-05-02T00:44:13.150Z,50.852886
2023-05-02T00:45:13.133Z,50.852955
2023-05-02T00:46:13.212Z,50.852936
2023-05-02T00:47:13.167Z,50.852940
2023-05-02T00:48:13.155Z,50.852989
2023-05-02T00:49:13.126Z,50.852951
2023-05-02T00:50:13.086Z,50.852921
2023-05-02T00:51:13.105Z,50.852909
2023-05-02T00:52:13.083Z,50.852837
2023-05-02T00:53:13.125Z,50.852825
2023-05-02T00:54:13.121Z,50.852840
2023-05-02T00:55:13.074Z,50.852867
2023-05-02T00:56:13.050Z,50.852894
2023-05-02T00:57:13.066Z,50.852875
2023-05-02T00:58:20.069Z,50.852882
2023-05-02T00:59:13.039Z,50.852882
2023-05-02T01:00:13.021Z,50.852871
2023-05-02T01:01:13.079Z,50.852825
2023-05-02T01:02:13.095Z,50.852833
2023-05-02T01:03:13.129Z,50.852825
2023-05-02T01:04:13.109Z,50.852825
2023-05-02T01:05:13.026Z,50.852829
2023-05-02T01:06:13.034Z,50.852844
2023-05-02T01:07:13.008Z,50.852848
2023-05-02T01:08:12.966Z,50.852840
2023-05-02T01:09:13.017Z,50.852863
2023-05-02T01:10:12.969Z,50.852867
2023-05-02T01:11:12.981Z,50.852859
2023-05-02T01:12:12.946Z,50.852871
2023-05-02T01:13:12.962Z,50.852917
2023-05-02T01:14:12.944Z,50.852879
2023-05-02T01:15:12.990Z,50.852852
2023-05-02T01:16:12.968Z,50.852844
2023-05-02T01:17:12.945Z,50.852798
2023-05-02T01:18:13.082Z,50.852818
2023-05-02T01:19:12.918Z,50.852852
2023-05-02T01:20:12.909Z,50.852863
2023-05-02T01:21:12.904Z,50.852859
2023-05-02T01:22:12.874Z,50.852863
2023-05-02T01:23:12.883Z,50.852890
2023-05-02T01:24:12.872Z,50.852879
2023-05-02T01:25:12.909Z,50.852871
2023-05-02T01:26:12.847Z,50.852859
2023-05-02T01:27:12.940Z,50.852848
2023-05-02T01:28:12.886Z,50.852879
2023-05-02T01:29:12.859Z,50.852882
2023-05-02T01:30:12.840Z,50.852871
2023-05-02T01:31:12.905Z,50.852879
2023-05-02T01:32:12.829Z,50.852837
2023-05-02T01:33:12.878Z,50.852875
2023-05-02T01:34:12.804Z,50.852879
2023-05-02T01:35:12.818Z,50.852848
2023-05-02T01:36:12.814Z,50.852848
2023-05-02T01:37:12.797Z,50.852894
2023-05-02T01:38:12.780Z,50.852859
2023-05-02T01:39:12.773Z,50.852890
2023-05-02T01:40:12.759Z,50.852890
2023-05-02T01:41:12.766Z,50.852879
2023-05-02T01:42:12.759Z,50.852886
2023-05-02T01:43:12.753Z,50.852859
2023-05-02T01:44:12.734Z,50.852879
2023-05-02T01:45:12.751Z,50.852882
2023-05-02T01:46:12.768Z,50.852867
2023-05-02T01:47:12.768Z,50.852871
2023-05-02T01:48:12.735Z,50.852879
2023-05-02T01:49:12.724Z,50.852901
2023-05-02T01:50:12.715Z,50.852875
2023-05-02T01:51:12.706Z,50.852871
2023-05-02T01:52:12.703Z,50.852875
2023-05-02T01:53:12.728Z,50.852913
2023-05-02T01:54:12.683Z,50.852947
2023-05-02T01:55:12.690Z,50.852898
2023-05-02T01:56:12.658Z,50.852810
2023-05-02T01:57:12.680Z,50.852802
2023-05-02T01:58:12.655Z,50.852928
2023-05-02T01:59:12.664Z,50.852894
2023-05-02T02:00:12.646Z,50.852890
2023-05-02T02:01:12.699Z,50.852882
2023-05-02T02:02:12.677Z,50.852840
2023-05-02T02:03:12.677Z,50.852867
2023-05-02T02:04:12.669Z,50.852882
2023-05-02T02:05:12.630Z,50.852901
2023-05-02T02:06:12.658Z,50.852913
2023-05-02T02:07:12.614Z,50.852863
2023-05-02T02:08:12.603Z,50.852798
2023-05-02T02:09:12.630Z,50.852875
2023-05-02T02:10:12.594Z,50.852928
2023-05-02T02:11:12.599Z,50.852856
2023-05-02T02:12:12.600Z,50.852871
2023-05-02T02:13:12.597Z,50.852840
2023-05-02T02:14:12.589Z,50.852871
2023-05-02T02:15:12.605Z,50.852837
2023-05-02T02:16:12.613Z,50.852856
2023-05-02T02:17:12.592Z,50.852886
2023-05-02T02:18:12.572Z,50.852909
2023-05-02T02:19:12.578Z,50.852901
2023-05-02T02:20:12.519Z,50.852875
2023-05-02T02:21:12.538Z,50.852901
2023-05-02T02:22:12.511Z,50.852810
2023-05-02T02:23:12.518Z,50.852871
2023-05-02T02:24:12.549Z,50.852852
2023-05-02T02:25:12.561Z,50.852882
2023-05-02T02:26:12.504Z,50.852840
2023-05-02T02:27:12.502Z,50.852882
2023-05-02T02:28:12.480Z,50.852856
2023-05-02T02:29:12.484Z,50.852844
2023-05-02T02:30:12.487Z,50.852837
2023-05-02T02:31:12.501Z,50.852859
2023-05-02T02:32:12.454Z,50.852863
2023-05-02T02:33:12.490Z,50.852852
2023-05-02T02:34:12.458Z,50.852852
2023-05-02T02:35:12.462Z,50.852856
2023-05-02T02:36:12.457Z,50.852859
2023-05-02T02:37:12.450Z,50.852871
2023-05-02T02:38:12.454Z,50.852875
2023-05-02T02:39:12.433Z,50.852863
2023-05-02T02:40:12.422Z,50.852856
2023-05-02T02:41:12.453Z,50.852856
2023-05-02T02:42:12.415Z,50.852879
2023-05-02T02:43:12.411Z,50.852848
2023-05-02T02:44:13.702Z,50.852810
2023-05-02T02:45:12.394Z,50.852821
2023-05-02T02:46:12.426Z,50.852821
2023-05-02T02:47:12.396Z,50.852818
2023-05-02T02:48:12.410Z,50.852810
2023-05-02T02:49:12.386Z,50.852818
2023-05-02T02:50:12.352Z,50.852833
2023-05-02T02:51:12.365Z,50.852825
2023-05-02T02:52:12.349Z,50.852787
2023-05-02T02:53:12.365Z,50.852802
2023-05-02T02:54:25.474Z,50.852802
2023-05-02T02:55:13.327Z,50.852802
2023-05-02T02:56:12.304Z,50.852837
2023-05-02T02:57:12.328Z,50.852825
2023-05-02T02:58:12.301Z,50.852798
2023-05-02T02:59:12.311Z,50.852825
2023-05-02T03:00:12.284Z,50.852814
2023-05-02T03:01:12.362Z,50.852821
2023-05-02T03:02:12.338Z,50.852814
2023-05-02T03:03:12.401Z,50.852798
2023-05-02T03:04:12.326Z,50.852806
2023-05-02T03:05:12.266Z,50.852810
2023-05-02T03:06:12.285Z,50.852802
2023-05-02T03:07:12.256Z,50.852818
2023-05-02T03:08:12.245Z,50.852798
2023-05-02T03:09:12.283Z,50.852821
2023-05-02T03:10:12.236Z,50.852814
2023-05-02T03:11:12.244Z,50.852795
2023-05-02T03:12:12.217Z,50.852818
2023-05-02T03:13:12.236Z,50.852795
2023-05-02T03:14:12.213Z,50.852818
2023-05-02T03:15:12.235Z,50.852825
2023-05-02T03:16:12.238Z,50.852810
2023-05-02T03:17:12.203Z,50.852795
2023-05-02T03:18:12.280Z,50.852795
2023-05-02T03:19:12.190Z,50.852810
2023-05-02T03:20:12.185Z,50.852802
2023-05-02T03:21:12.192Z,50.852802
2023-05-02T03:22:12.186Z,50.852791
2023-05-02T03:23:12.186Z,50.852795
2023-05-02T03:24:12.146Z,50.852798
2023-05-02T03:25:12.152Z,50.852798
2023-05-02T03:26:12.154Z,50.852810
2023-05-02T03:27:12.141Z,50.852776
2023-05-02T03:28:12.122Z,50.852798
2023-05-02T03:29:12.149Z,50.852798
2023-05-02T03:30:12.114Z,50.852802
2023-05-02T03:31:12.187Z,50.852810
2023-05-02T03:32:12.144Z,50.852810
2023-05-02T03:33:12.185Z,50.852798
2023-05-02T03:34:12.087Z,50.852818
2023-05-02T03:35:12.105Z,50.852829
2023-05-02T03:36:12.091Z,50.852810
2023-05-02T03:37:12.093Z,50.852810
2023-05-02T03:38:12.066Z,50.852810
2023-05-02T03:39:12.088Z,50.852795
2023-05-02T03:40:12.073Z,50.852791
2023-05-02T03:41:12.088Z,50.852791
2023-05-02T03:42:12.039Z,50.852821
2023-05-02T03:43:12.070Z,50.852795
2023-05-02T03:44:12.024Z,50.852791
2023-05-02T03:45:12.032Z,50.852760
2023-05-02T03:46:12.085Z,50.852814
2023-05-02T03:47:12.064Z,50.852833
2023-05-02T03:48:12.091Z,50.852787
2023-05-02T03:49:12.012Z,50.852798
2023-05-02T03:50:11.995Z,50.852787
2023-05-02T03:51:11.996Z,50.852791
2023-05-02T03:52:11.980Z,50.852741
2023-05-02T03:53:12.011Z,50.852795
2023-05-02T03:54:11.995Z,50.852806
2023-05-02T03:55:11.998Z,50.852840
2023-05-02T03:56:11.968Z,50.852806
2023-05-02T03:57:11.972Z,50.852859
2023-05-02T03:58:11.952Z,50.852829
2023-05-02T03:59:11.997Z,50.852779
2023-05-02T04:00:11.941Z,50.852772
2023-05-02T04:01:11.946Z,50.852787
2023-05-02T04:02:11.950Z,50.852753
2023-05-02T04:03:12.020Z,50.852776
2023-05-02T04:04:11.945Z,50.852787
2023-05-02T04:05:11.933Z,50.852779
2023-05-02T04:06:11.934Z,50.852795
2023-05-02T04:07:11.911Z,50.852768
2023-05-02T04:08:11.891Z,50.852753
2023-05-02T04:09:11.928Z,50.852776
2023-05-02T04:10:11.884Z,50.852783
2023-05-02T04:11:11.915Z,50.852768
2023-05-02T04:12:11.868Z,50.852783
2023-05-02T04:13:11.888Z,50.852787
2023-05-02T04:14:11.867Z,50.852768
2023-05-02T04:15:11.900Z,50.852787
2023-05-02T04:16:11.863Z,50.852821
2023-05-02T04:17:11.918Z,50.852776
2023-05-02T04:18:11.901Z,50.852818
2023-05-02T04:19:11.858Z,50.852791
2023-05-02T04:20:11.849Z,50.852825
2023-05-02T04:21:11.843Z,50.852814
2023-05-02T04:22:11.812Z,50.852798
2023-05-02T04:23:11.832Z,50.852795
2023-05-02T04:24:11.812Z,50.852795
2023-05-02T04:25:11.816Z,50.852776
2023-05-02T04:26:11.802Z,50.852776
2023-05-02T04:27:14.441Z,50.852757
2023-05-02T04:28:11.782Z,50.852730
2023-05-02T04:29:11.802Z,50.852764
2023-05-02T04:30:11.761Z,50.852787
2023-05-02T04:31:11.858Z,50.852757
2023-05-02T04:32:11.763Z,50.852776
2023-05-02T04:33:11.797Z,50.852783
2023-05-02T04:34:11.770Z,50.852776
2023-05-02T04:35:11.776Z,50.852772
2023-05-02T04:36:11.744Z,50.852791
2023-05-02T04:37:11.742Z,50.852776
2023-05-02T04:38:11.732Z,50.852768
2023-05-02T04:39:11.747Z,50.852772
2023-05-02T04:40:11.710Z,50.852821
2023-05-02T04:41:11.702Z,50.852734
2023-05-02T04:42:11.708Z,50.852757
2023-05-02T04:43:11.691Z,50.852776
2023-05-02T04:44:11.694Z,50.852749
2023-05-02T04:45:11.693Z,50.852745
2023-05-02T04:46:11.701Z,50.852753
2023-05-02T04:47:11.707Z,50.852737
2023-05-02T04:48:11.699Z,50.852692
2023-05-02T04:49:11.679Z,50.852703
2023-05-02T04:50:11.649Z,50.852715
2023-05-02T04:51:11.876Z,50.852783
2023-05-02T04:52:11.632Z,50.852795
2023-05-02T04:53:11.654Z,50.852810
2023-05-02T04:54:11.617Z,50.852810
2023-05-02T04:55:11.621Z,50.852810
2023-05-02T04:56:11.627Z,50.852798
2023-05-02T04:57:11.611Z,50.852776
2023-05-02T04:58:11.593Z,50.852776
2023-05-02T04:59:11.594Z,50.852783
2023-05-02T05:00:11.580Z,50.852764
2023-05-02T05:01:11.623Z,50.852764
2023-05-02T05:02:11.586Z,50.852757
2023-05-02T05:03:11.706Z,50.852772
2023-05-02T05:04:11.638Z,50.852810
2023-05-02T05:05:11.622Z,50.852787
2023-05-02T05:06:11.560Z,50.852783
2023-05-02T05:07:11.548Z,50.852776
2023-05-02T05:08:11.521Z,50.852802
2023-05-02T05:09:11.545Z,50.852810
2023-05-02T05:10:11.558Z,50.852783
2023-05-02T05:11:11.563Z,50.852837
2023-05-02T05:12:11.518Z,50.852798
2023-05-02T05:13:11.516Z,50.852795
2023-05-02T05:14:11.487Z,50.852776
2023-05-02T05:15:11.505Z,50.852779
2023-05-02T05:16:11.532Z,50.852795
2023-05-02T05:17:11.499Z,50.852791
2023-05-02T05:18:11.548Z,50.852768
2023-05-02T05:19:11.470Z,50.852779
2023-05-02T05:20:11.450Z,50.852810
2023-05-02T05:21:11.460Z,50.852806
2023-05-02T05:22:11.452Z,50.852798
2023-05-02T05:23:11.443Z,50.852795
2023-05-02T05:24:11.421Z,50.852787
2023-05-02T05:25:11.454Z,50.852795
2023-05-02T05:26:11.405Z,50.852787
2023-05-02T05:27:11.449Z,50.852806
2023-05-02T05:28:11.406Z,50.852764
2023-05-02T05:29:11.412Z,50.852814
2023-05-02T05:30:11.407Z,50.852825
2023-05-02T05:31:11.403Z,50.852806
2023-05-02T05:32:11.509Z,50.852795
2023-05-02T05:33:11.433Z,50.852772
2023-05-02T05:34:11.433Z,50.852818
2023-05-02T05:35:11.400Z,50.852776
2023-05-02T05:36:11.336Z,50.852814
2023-05-02T05:37:11.358Z,50.852825
2023-05-02T05:38:11.356Z,50.852810
2023-05-02T05:39:11.344Z,50.852798
2023-05-02T05:40:11.344Z,50.852783
2023-05-02T05:41:11.439Z,50.852818
2023-05-02T05:42:11.304Z,50.852856
2023-05-02T05:43:11.308Z,50.852833
2023-05-02T05:44:11.309Z,50.852833
2023-05-02T05:45:11.296Z,50.852829
2023-05-02T05:46:11.279Z,50.852837
2023-05-02T05:47:11.360Z,50.852798
2023-05-02T05:48:11.303Z,50.852779
2023-05-02T05:49:11.322Z,50.852829
2023-05-02T05:50:11.276Z,50.852818
2023-05-02T05:51:11.275Z,50.852825
2023-05-02T05:52:11.247Z,50.852848
2023-05-02T05:53:11.242Z,50.852829
2023-05-02T05:54:11.236Z,50.852837
2023-05-02T05:55:11.254Z,50.852802
2023-05-02T05:56:11.215Z,50.852821
2023-05-02T05:57:11.232Z,50.852825
2023-05-02T05:58:11.204Z,50.852802
2023-05-02T05:59:11.216Z,50.852856
2023-05-02T06:00:11.207Z,50.852856
2023-05-02T06:01:11.218Z,50.852852
2023-05-02T06:02:11.266Z,50.852848
2023-05-02T06:03:11.333Z,50.852837
2023-05-02T06:04:11.272Z,50.852825
2023-05-02T06:05:11.291Z,50.852848
2023-05-02T06:06:11.181Z,50.852814
2023-05-02T06:07:11.163Z,50.852833
2023-05-02T06:08:11.146Z,50.852840
2023-05-02T06:09:11.141Z,50.852818
2023-05-02T06:10:11.151Z,50.852814
2023-05-02T06:11:11.135Z,50.852810
2023-05-02T06:12:11.095Z,50.852722
2023-05-02T06:13:11.139Z,50.852810
2023-05-02T06:14:11.111Z,50.852802
2023-05-02T06:15:11.104Z,50.852787
2023-05-02T06:16:11.100Z,50.852802
2023-05-02T06:17:11.082Z,50.852795
2023-05-02T06:18:11.098Z,50.852798
2023-05-02T06:19:11.097Z,50.852798
2023-05-02T06:20:11.163Z,50.852787
2023-05-02T06:21:11.050Z,50.852818
2023-05-02T06:22:11.025Z,50.852829
2023-05-02T06:23:11.033Z,50.852814
2023-05-02T06:24:11.027Z,50.852829
2023-05-02T06:25:11.014Z,50.852825
2023-05-02T06:26:11.012Z,50.852825
2023-05-02T06:27:11.005Z,50.852814
2023-05-02T06:28:10.987Z,50.852814
2023-05-02T06:29:11.004Z,50.852818
2023-05-02T06:30:10.962Z,50.852810
2023-05-02T06:31:11.020Z,50.852806
2023-05-02T06:32:10.943Z,50.852802
2023-05-02T06:33:10.980Z,50.852821
2023-05-02T06:34:10.927Z,50.852768
2023-05-02T06:35:10.948Z,50.852802
2023-05-02T06:36:10.925Z,50.852818
2023-05-02T06:37:10.939Z,50.852791
2023-05-02T06:38:10.891Z,50.852795
2023-05-02T06:39:10.948Z,50.852806
2023-05-02T06:40:10.888Z,50.852798
2023-05-02T06:41:10.893Z,50.852825
2023-05-02T06:42:10.868Z,50.852806
2023-05-02T06:43:10.870Z,50.852814
2023-05-02T06:44:10.860Z,50.852837
2023-05-02T06:45:10.867Z,50.852825
2023-05-02T06:46:10.842Z,50.852806
2023-05-02T06:47:10.938Z,50.852818
2023-05-02T06:48:10.827Z,50.852837
2023-05-02T06:49:10.815Z,50.852837
2023-05-02T06:50:10.813Z,50.852829
2023-05-02T06:51:10.817Z,50.852787
2023-05-02T06:52:10.792Z,50.852798
2023-05-02T06:53:10.812Z,50.852810
2023-05-02T06:54:10.788Z,50.852821
2023-05-02T06:55:10.772Z,50.852848
2023-05-02T06:56:10.760Z,50.852821
2023-05-02T06:57:10.742Z,50.852787
2023-05-02T06:58:10.721Z,50.852798
2023-05-02T06:59:17.795Z,50.852837
2023-05-02T07:00:10.703Z,50.852856
2023-05-02T07:01:10.802Z,50.852840
2023-05-02T07:02:10.713Z,50.852837
2023-05-02T07:03:10.716Z,50.852818
2023-05-02T07:04:10.721Z,50.852818
2023-05-02T07:05:10.703Z,50.852825
2023-05-02T07:06:10.693Z,50.852802
2023-05-02T07:07:10.695Z,50.852757
2023-05-02T07:08:10.671Z,50.852776
2023-05-02T07:09:10.643Z,50.852753
2023-05-02T07:10:10.612Z,50.852772
2023-05-02T07:11:10.645Z,50.852818
2023-05-02T07:12:10.805Z,50.852798
2023-05-02T07:13:10.632Z,50.852818
2023-05-02T07:14:10.635Z,50.852753
2023-05-02T07:15:10.588Z,50.852760
2023-05-02T07:16:10.676Z,50.852791
2023-05-02T07:17:10.749Z,50.852798
2023-05-02T07:18:10.623Z,50.852829
2023-05-02T07:19:10.576Z,50.852798
2023-05-02T07:20:10.563Z,50.852810
2023-05-02T07:21:10.550Z,50.852787
2023-05-02T07:22:10.538Z,50.852783
2023-05-02T07:23:10.545Z,50.852764
2023-05-02T07:24:10.541Z,50.852776
2023-05-02T07:25:10.564Z,50.852818
2023-05-02T07:26:10.487Z,50.852825
2023-05-02T07:27:10.490Z,50.852806
2023-05-02T07:28:10.462Z,50.852840
2023-05-02T07:29:10.520Z,50.852806
2023-05-02T07:30:10.463Z,50.852779
2023-05-02T07:31:10.456Z,50.852798
2023-05-02T07:32:10.487Z,50.852757
2023-05-02T07:33:10.465Z,50.852810
2023-05-02T07:34:10.428Z,50.852791
2023-05-02T07:35:10.456Z,50.852791
2023-05-02T07:36:10.424Z,50.852818
2023-05-02T07:37:10.421Z,50.852802
2023-05-02T07:38:10.412Z,50.852776
2023-05-02T07:39:10.393Z,50.852802
2023-05-02T07:40:10.389Z,50.852776
2023-05-02T07:41:10.405Z,50.852852
2023-05-02T07:42:10.380Z,50.852894
2023-05-02T07:43:11.238Z,50.852848
2023-05-02T07:44:10.373Z,50.852837
2023-05-02T07:45:10.356Z,50.852867
2023-05-02T07:46:10.413Z,50.852791
2023-05-02T07:47:10.335Z,50.852802
2023-05-02T07:48:10.385Z,50.852791
2023-05-02T07:49:10.330Z,50.852795
2023-05-02T07:50:10.300Z,50.852779
2023-05-02T07:51:10.297Z,50.852818
2023-05-02T07:52:10.300Z,50.852818
2023-05-02T07:53:10.306Z,50.852806
2023-05-02T07:54:10.273Z,50.852753
2023-05-02T07:55:10.270Z,50.852772
2023-05-02T07:56:10.272Z,50.852798
2023-05-02T07:57:10.256Z,50.852806
2023-05-02T07:58:10.245Z,50.852795
2023-05-02T07:59:10.285Z,50.852783
2023-05-02T08:00:10.312Z,50.852829
2023-05-02T08:01:10.219Z,50.852791
2023-05-02T08:02:10.236Z,50.852837
2023-05-02T08:03:10.308Z,50.852848
2023-05-02T08:04:10.469Z,50.852818
2023-05-02T08:05:10.332Z,50.852867
2023-05-02T08:06:10.224Z,50.852840
2023-05-02T08:07:10.160Z,50.852806
2023-05-02T08:08:10.164Z,50.852840
2023-05-02T08:09:10.165Z,50.852852
2023-05-02T08:10:10.181Z,50.852810
2023-05-02T08:11:10.145Z,50.852814
2023-05-02T08:12:10.143Z,50.852798
2023-05-02T08:13:10.128Z,50.852818
2023-05-02T08:14:10.119Z,50.852814
2023-05-02T08:15:10.115Z,50.852802
2023-05-02T08:16:10.151Z,50.852810
2023-05-02T08:17:10.099Z,50.852791
2023-05-02T08:18:10.124Z,50.852802
2023-05-02T08:19:10.105Z,50.852806
2023-05-02T08:20:10.073Z,50.852810
2023-05-02T08:21:10.052Z,50.852802
2023-05-02T08:22:10.052Z,50.852840
2023-05-02T08:23:10.056Z,50.852829
2023-05-02T08:24:10.048Z,50.852844
2023-05-02T08:25:10.101Z,50.852814
2023-05-02T08:26:10.020Z,50.852802
2023-05-02T08:27:10.017Z,50.852802
2023-05-02T08:28:09.983Z,50.852821
2023-05-02T08:29:10.004Z,50.852886
2023-05-02T08:30:09.979Z,50.852814
2023-05-02T08:31:10.042Z,50.852856
2023-05-02T08:32:09.990Z,50.852901
2023-05-02T08:33:09.985Z,50.852787
2023-05-02T08:34:09.949Z,50.852772
2023-05-02T08:35:09.989Z,50.852833
2023-05-02T08:36:09.955Z,50.852848
2023-05-02T08:37:09.948Z,50.852825
2023-05-02T08:38:09.935Z,50.852844
2023-05-02T08:39:09.912Z,50.852863
2023-05-02T08:40:09.897Z,50.852844
2023-05-02T08:41:09.915Z,50.852867
2023-05-02T08:42:09.908Z,50.852829
2023-05-02T08:43:09.910Z,50.852844
2023-05-02T08:44:09.858Z,50.852795
2023-05-02T08:45:09.902Z,50.852802
2023-05-02T08:46:09.835Z,50.852768
2023-05-02T08:47:09.920Z,50.852848
2023-05-02T08:48:09.866Z,50.852867
2023-05-02T08:49:09.851Z,50.852932
2023-05-02T08:50:09.855Z,50.852936
2023-05-02T08:51:09.876Z,50.852882
2023-05-02T08:52:09.798Z,50.852890
2023-05-02T08:53:09.828Z,50.852814
2023-05-02T08:54:09.789Z,50.852798
2023-05-02T08:55:09.812Z,50.852764
2023-05-02T08:56:09.760Z,50.852722
2023-05-02T08:57:09.796Z,50.852722
2023-05-02T08:58:09.751Z,50.852768
2023-05-02T08:59:09.760Z,50.852791
2023-05-02T09:00:09.751Z,50.852798
2023-05-02T09:01:09.771Z,50.852753
2023-05-02T09:02:09.715Z,50.852840
2023-05-02T09:03:09.883Z,50.852829
2023-05-02T09:04:09.725Z,50.852901
2023-05-02T09:05:09.718Z,50.852959
2023-05-02T09:06:09.716Z,50.852947
2023-05-02T09:07:10.897Z,50.852890
2023-05-02T09:08:09.677Z,50.852890
2023-05-02T09:09:10.158Z,50.853008
2023-05-02T09:10:09.677Z,50.852901
2023-05-02T09:11:09.667Z,50.852814
2023-05-02T09:12:09.639Z,50.852806
2023-05-02T09:13:09.652Z,50.852791
2023-05-02T09:14:09.687Z,50.852791
2023-05-02T09:15:09.638Z,50.852787
2023-05-02T09:16:09.619Z,50.852848
2023-05-02T09:17:09.765Z,50.852833
2023-05-02T09:18:09.596Z,50.852810
2023-05-02T09:19:09.627Z,50.852798
2023-05-02T09:20:09.595Z,50.852787
2023-05-02T09:21:09.580Z,50.852791
2023-05-02T09:22:09.585Z,50.852814
2023-05-02T09:23:09.577Z,50.852787
2023-05-02T09:24:09.543Z,50.852772
2023-05-02T09:25:09.585Z,50.852798
2023-05-02T09:26:09.518Z,50.852814
2023-05-02T09:27:09.530Z,50.852783
2023-05-02T09:28:09.533Z,50.852787
2023-05-02T09:29:09.519Z,50.852814
2023-05-02T09:30:09.524Z,50.852806
2023-05-02T09:31:09.577Z,50.852829
2023-05-02T09:32:09.596Z,50.852814
2023-05-02T09:33:09.585Z,50.852810
2023-05-02T09:34:09.456Z,50.852825
2023-05-02T09:35:09.482Z,50.852787
2023-05-02T09:36:09.552Z,50.852795
2023-05-02T09:37:09.451Z,50.852776
2023-05-02T09:38:09.496Z,50.852768
2023-05-02T09:39:09.432Z,50.852810
2023-05-02T09:40:09.427Z,50.852772
2023-05-02T09:41:09.437Z,50.852795
2023-05-02T09:42:09.439Z,50.852798
2023-05-02T09:43:09.407Z,50.852829
2023-05-02T09:44:09.379Z,50.852848
2023-05-02T09:45:09.401Z,50.852833
2023-05-02T09:46:09.485Z,50.852814
2023-05-02T09:47:09.406Z,50.852802
2023-05-02T09:48:09.373Z,50.852829
2023-05-02T09:49:09.386Z,50.852787
2023-05-02T09:50:09.338Z,50.852844
2023-05-02T09:51:09.351Z,50.852867
2023-05-02T09:52:09.379Z,50.852856
2023-05-02T09:53:09.328Z,50.852856
2023-05-02T09:54:09.319Z,50.852894
2023-05-02T09:55:09.326Z,50.852840
2023-05-02T09:56:09.301Z,50.852818
2023-05-02T09:57:09.321Z,50.852829
2023-05-02T09:58:09.283Z,50.852840
2023-05-02T09:59:09.276Z,50.852814
2023-05-02T10:00:09.273Z,50.852837
2023-05-02T10:01:09.312Z,50.852814
2023-05-02T10:02:09.247Z,50.852821
2023-05-02T10:03:09.300Z,50.852829
2023-05-02T10:04:09.229Z,50.852818
2023-05-02T10:05:09.220Z,50.852844
2023-05-02T10:06:09.284Z,50.852852
2023-05-02T10:07:09.241Z,50.852898
2023-05-02T10:08:09.209Z,50.852829
2023-05-02T10:09:09.194Z,50.852791
2023-05-02T10:10:09.221Z,50.852772
2023-05-02T10:11:09.200Z,50.852726
2023-05-02T10:12:09.163Z,50.852730
2023-05-02T10:13:09.171Z,50.852684
2023-05-02T10:14:09.145Z,50.852726
2023-05-02T10:15:09.179Z,50.852753
2023-05-02T10:16:09.146Z,50.852757
2023-05-02T10:17:09.139Z,50.852791
2023-05-02T10:18:09.163Z,50.852879
2023-05-02T10:19:09.117Z,50.852837
2023-05-02T10:20:09.095Z,50.852848
2023-05-02T10:21:09.122Z,50.852791
2023-05-02T10:22:09.102Z,50.852791
2023-05-02T10:23:09.100Z,50.852821
2023-05-02T10:24:09.085Z,50.852776
2023-05-02T10:25:09.082Z,50.852764
2023-05-02T10:26:09.082Z,50.852787
2023-05-02T10:27:09.092Z,50.852757
2023-05-02T10:28:09.022Z,50.852757
2023-05-02T10:29:09.055Z,50.852810
2023-05-02T10:30:09.047Z,50.852856
2023-05-02T10:31:09.090Z,50.852787
2023-05-02T10:32:09.010Z,50.852886
2023-05-02T10:33:09.075Z,50.852840
2023-05-02T10:34:08.983Z,50.852711
2023-05-02T10:35:09.012Z,50.852905
2023-05-02T10:36:08.982Z,50.852898
2023-05-02T10:37:08.992Z,50.852818
2023-05-02T10:38:08.943Z,50.852859
2023-05-02T10:39:08.960Z,50.852825
2023-05-02T10:40:08.941Z,50.852821
2023-05-02T10:41:08.957Z,50.852825
2023-05-02T10:42:08.935Z,50.852798
2023-05-02T10:43:08.931Z,50.852798
2023-05-02T10:44:08.921Z,50.852806
2023-05-02T10:45:08.903Z,50.852829
2023-05-02T10:46:08.929Z,50.852837
2023-05-02T10:47:08.891Z,50.852844
2023-05-02T10:48:08.934Z,50.852825
2023-05-02T10:49:08.870Z,50.852829
2023-05-02T10:50:08.848Z,50.852825
2023-05-02T10:51:08.854Z,50.852825
2023-05-02T10:52:08.841Z,50.852818
2023-05-02T10:53:08.855Z,50.852825
2023-05-02T10:54:08.816Z,50.852818
2023-05-02T10:55:08.826Z,50.852806
2023-05-02T10:56:08.824Z,50.852825
2023-05-02T10:57:08.831Z,50.852795
2023-05-02T10:58:08.809Z,50.852776
2023-05-02T10:59:08.783Z,50.852806
2023-05-02T11:00:08.777Z,50.852791
2023-05-02T11:01:08.821Z,50.852798
2023-05-02T11:02:08.781Z,50.852795
2023-05-02T11:03:09.004Z,50.852776
2023-05-02T11:04:08.773Z,50.852791
2023-05-02T11:05:08.748Z,50.852787
2023-05-02T11:06:08.782Z,50.852833
2023-05-02T11:07:08.717Z,50.852764
2023-05-02T11:08:08.724Z,50.852764
2023-05-02T11:09:08.694Z,50.852795
2023-05-02T11:10:08.696Z,50.852802
2023-05-02T11:11:08.702Z,50.852787
2023-05-02T11:12:08.677Z,50.852802
2023-05-02T11:13:08.681Z,50.852802
2023-05-02T11:14:08.652Z,50.852795
2023-05-02T11:15:08.680Z,50.852810
2023-05-02T11:16:08.659Z,50.852795
2023-05-02T11:17:08.666Z,50.852787
2023-05-02T11:18:08.705Z,50.852810
2023-05-02T11:19:08.653Z,50.852814
2023-05-02T11:20:08.656Z,50.852806
2023-05-02T11:21:08.638Z,50.852798
2023-05-02T11:22:08.585Z,50.852795
2023-05-02T11:23:08.589Z,50.852737
2023-05-02T11:24:08.593Z,50.852795